Herzlich willkommen!

Am freundlichen Bodensee-Flugplatz zwischen Schwarzwald, Rhein und Alpen.

Aktuelles

04.02.2020
Platz überschwemmt
Auf Grund der starken Regenfälle ist der Platz überschwemmt und voraussichtlich bis Donnerstag 20. Feb. per NOTAM geschlossen.
— Flugleitung EDTZ

Live am Platz

Die Bilder unserer Webcams werden alle 5 Minuten aktualisiert.

Sonnenaufgang:

06:24 UTC / 07:24 Lokal

Sonnenuntergang:

16:49 UTC / 17:49 Lokal

METAR (17.02.2020 17:50 UTC):

EDNY 171750Z 20007KT 170V230 9999 -RA BKN033 OVC066 08/06 Q1022
VFR

TAF (17.02.2020 17:00 UTC):

TAF EDNY 171700Z 1718/1818 24010KT 9999 FEW020 BKN030 BECMG 1816/1818 24005KT

Alle Angaben unverbindlich und ohne Gewähr. Zeiten genähert.

Für den Verkehrslandeplatz Konstanz werden keine offiziellen Wetterinformationen ausgegeben. Daher werden zur Orientierung Daten des nahegelegenen Flughafens Friedrichshafen dargestellt.

Flugwetterdaten zur Verfügung gestellt von wippich.aero.